createdAt,value
2023-01-25T00:06:19.177Z,101968.84
2023-01-25T00:08:52.686Z,101964.05
2023-01-25T00:11:21.494Z,101959.89
2023-01-25T00:13:49.727Z,101960.91
2023-01-25T00:16:17.854Z,101954.21
2023-01-25T00:18:45.857Z,101953.02
2023-01-25T00:21:15.240Z,101953.81
2023-01-25T00:23:43.276Z,101944.75
2023-01-25T00:26:11.442Z,101943.88
2023-01-25T00:28:40.696Z,101939.81
2023-01-25T00:31:20.233Z,101940.64
2023-01-25T00:34:01.986Z,101934.02
2023-01-25T00:36:37.811Z,101937.58
2023-01-25T00:39:13.665Z,101938.11
2023-01-25T00:41:42.932Z,101934.02
2023-01-25T00:44:11.505Z,101932.58
2023-01-25T00:46:40.188Z,101926.98
2023-01-25T00:49:31.767Z,101924.04
2023-01-25T00:52:00.012Z,101926.31
2023-01-25T00:54:30.081Z,101925.91
2023-01-25T00:56:58.691Z,101924.04
2023-01-25T00:59:27.514Z,101923.45
2023-01-25T01:01:55.833Z,101918.27
2023-01-25T01:04:26.911Z,101917.14
2023-01-25T01:06:55.880Z,101922.27
2023-01-25T01:09:24.178Z,101921.38
2023-01-25T01:11:54.258Z,101916.20
2023-01-25T01:14:22.904Z,101917.59
2023-01-25T01:16:57.076Z,101921.88
2023-01-25T01:19:30.984Z,101920.03
2023-01-25T01:21:58.950Z,101920.05
2023-01-25T01:24:30.484Z,101923.98
2023-01-25T01:27:02.025Z,101924.44
2023-01-25T01:29:30.100Z,101924.33
2023-01-25T01:31:59.120Z,101922.88
2023-01-25T01:34:29.723Z,101922.10
2023-01-25T01:36:58.352Z,101921.11
2023-01-25T01:39:27.958Z,101918.42
2023-01-25T01:41:58.634Z,101918.96
2023-01-25T01:44:47.663Z,101916.06
2023-01-25T01:47:22.682Z,101912.10
2023-01-25T01:49:54.397Z,101909.50
2023-01-25T01:52:27.614Z,101910.92
2023-01-25T01:55:09.406Z,101907.98
2023-01-25T01:57:46.464Z,101904.30
2023-01-25T02:00:17.702Z,101907.03
2023-01-25T02:02:46.977Z,101906.20
2023-01-25T02:05:20.122Z,101904.73
2023-01-25T02:07:49.866Z,101903.02
2023-01-25T02:10:20.264Z,101898.27
2023-01-25T02:12:48.941Z,101898.46
2023-01-25T02:15:19.863Z,101886.33
2023-01-25T02:17:48.334Z,101880.35
2023-01-25T02:20:26.996Z,101881.14
2023-01-25T02:23:18.921Z,101875.79
2023-01-25T02:25:48.118Z,101876.31
2023-01-25T02:28:17.277Z,101879.29
2023-01-25T02:30:45.402Z,101875.66
2023-01-25T02:33:13.465Z,101875.73
2023-01-25T02:35:51.560Z,101877.23
2023-01-25T02:38:21.572Z,101882.34
2023-01-25T02:40:56.533Z,101876.07
2023-01-25T02:43:30.009Z,101870.80
2023-01-25T02:46:02.316Z,101878.63
2023-01-25T02:48:31.803Z,101881.09
2023-01-25T02:51:00.055Z,101879.85
2023-01-25T02:53:29.483Z,101882.40
2023-01-25T02:55:57.522Z,101880.34
2023-01-25T02:58:25.601Z,101873.90
2023-01-25T03:00:53.721Z,101875.25
2023-01-25T03:03:21.948Z,101873.80
2023-01-25T03:05:50.087Z,101868.77
2023-01-25T03:08:18.591Z,101871.08
2023-01-25T03:10:47.359Z,101868.80
2023-01-25T03:13:16.365Z,101867.15
2023-01-25T03:15:44.686Z,101868.56
2023-01-25T03:18:13.038Z,101867.30
2023-01-25T03:20:41.364Z,101869.34
2023-01-25T03:23:09.469Z,101873.83
2023-01-25T03:25:40.989Z,101879.21
2023-01-25T03:28:12.744Z,101885.97
2023-01-25T03:30:41.246Z,101886.43
2023-01-25T03:33:09.469Z,101883.29
2023-01-25T03:35:45.962Z,101881.73
2023-01-25T03:38:14.271Z,101876.43
2023-01-25T03:40:42.459Z,101878.73
2023-01-25T03:43:11.498Z,101880.48
2023-01-25T03:45:39.425Z,101879.73
2023-01-25T03:48:07.861Z,101886.59
2023-01-25T03:50:38.519Z,101887.81
2023-01-25T03:53:35.857Z,101889.10
2023-01-25T03:56:10.096Z,101888.83
2023-01-25T03:58:39.135Z,101889.02
2023-01-25T04:01:08.051Z,101889.96
2023-01-25T04:03:36.304Z,101887.35
2023-01-25T04:06:06.189Z,101886.79
2023-01-25T04:08:35.007Z,101887.27
2023-01-25T04:11:06.801Z,101885.20
2023-01-25T04:13:36.803Z,101883.46
2023-01-25T04:16:07.215Z,101886.66
2023-01-25T04:18:57.217Z,101883.92
2023-01-25T04:21:25.876Z,101878.73
2023-01-25T04:23:54.181Z,101880.27
2023-01-25T04:26:22.620Z,101879.81
2023-01-25T04:28:55.508Z,101884.72
2023-01-25T04:31:25.681Z,101885.31
2023-01-25T04:33:57.617Z,101887.44
2023-01-25T04:36:26.361Z,101883.98
2023-01-25T04:38:54.359Z,101883.80
2023-01-25T04:41:27.031Z,101882.36
2023-01-25T04:43:55.896Z,101879.39
2023-01-25T04:46:24.109Z,101879.64
2023-01-25T04:48:52.860Z,101881.89
2023-01-25T04:51:22.709Z,101883.31
2023-01-25T04:53:51.456Z,101881.77
2023-01-25T04:56:20.152Z,101878.25
2023-01-25T04:58:52.258Z,101881.83
2023-01-25T05:01:22.511Z,101885.55
2023-01-25T05:03:51.209Z,101889.71
2023-01-25T05:06:40.785Z,101892.42
2023-01-25T05:09:10.963Z,101891.70
2023-01-25T05:11:41.555Z,101890.11
2023-01-25T05:14:14.738Z,101889.64
2023-01-25T05:16:45.088Z,101887.34
2023-01-25T05:19:13.386Z,101890.03
2023-01-25T05:22:03.410Z,101886.29
2023-01-25T05:24:37.035Z,101883.13
2023-01-25T05:27:08.996Z,101884.98
2023-01-25T05:29:57.424Z,101879.49
2023-01-25T05:32:36.549Z,101877.14
2023-01-25T05:35:05.106Z,101874.68
2023-01-25T10:02:36.848Z,101825.11
2023-01-25T10:05:26.963Z,101824.98
2023-01-25T10:07:58.080Z,101820.15
2023-01-25T10:10:34.749Z,101809.10
2023-01-25T10:13:04.484Z,101801.87
2023-01-25T10:15:37.761Z,101802.29
2023-01-25T10:18:18.885Z,101792.90
2023-01-25T10:21:16.581Z,101787.52
2023-01-25T10:24:22.241Z,101788.33
2023-01-25T10:26:56.359Z,101786.33
2023-01-25T10:29:28.050Z,101781.52
2023-01-25T10:31:57.845Z,101777.89
2023-01-25T10:34:27.424Z,101771.25
2023-01-25T10:36:55.079Z,101766.11
2023-01-25T10:39:21.723Z,101768.55
2023-01-25T10:41:52.260Z,101765.02
2023-01-25T10:44:21.670Z,101762.48
2023-01-25T10:46:51.666Z,101759.73
2023-01-25T10:49:24.313Z,101754.09
2023-01-25T10:51:51.001Z,101754.77
2023-01-25T10:54:17.589Z,101750.92
2023-01-25T10:56:44.258Z,101747.14
2023-01-25T10:59:25.094Z,101745.11
2023-01-25T11:01:52.130Z,101743.69
2023-01-25T11:04:23.847Z,101744.66
2023-01-25T11:06:51.811Z,101745.70
2023-01-25T11:09:21.623Z,101738.80
2023-01-25T11:11:59.317Z,101741.35
2023-01-25T11:14:27.593Z,101731.20
2023-01-25T11:16:55.666Z,101727.48
2023-01-25T11:19:39.537Z,101727.27
2023-01-25T11:22:28.159Z,101733.57
2023-01-25T11:24:54.802Z,101727.02
2023-01-25T11:27:26.119Z,101725.64
2023-01-25T11:30:06.092Z,101723.59
2023-01-25T11:32:33.261Z,101720.19
2023-01-25T11:35:00.408Z,101721.00
2023-01-25T11:38:04.933Z,101719.40
2023-01-25T11:40:37.843Z,101713.07
2023-01-25T11:43:09.264Z,101708.54
2023-01-25T11:45:48.053Z,101707.08
2023-01-25T11:48:30.195Z,101704.77
2023-01-25T11:51:02.846Z,101700.73
2023-01-25T11:54:07.423Z,101701.78
2023-01-25T11:56:41.479Z,101699.92
2023-01-25T11:59:34.561Z,101696.33
2023-01-25T12:02:39.141Z,101693.52
2023-01-25T12:05:21.845Z,101696.32
2023-01-25T12:08:26.752Z,101696.80
2023-01-25T12:11:08.968Z,101694.14
2023-01-25T12:13:52.137Z,101692.65
2023-01-25T12:16:37.240Z,101691.84
2023-01-25T12:19:41.493Z,101693.13
2023-01-25T12:22:14.446Z,101691.77
2023-01-25T12:24:56.350Z,101691.42
2023-01-25T12:27:37.956Z,101690.77
2023-01-25T12:30:26.514Z,101690.70
2023-01-25T12:33:13.609Z,101691.91
2023-01-25T12:35:43.908Z,101692.67
2023-01-25T12:38:18.457Z,101683.88
2023-01-25T12:40:54.231Z,101684.40
2023-01-25T12:43:24.931Z,101681.72
2023-01-25T12:45:53.318Z,101679.45
2023-01-25T12:48:21.894Z,101688.66
2023-01-25T12:50:56.312Z,101685.61
2023-01-25T12:53:24.300Z,101686.00
2023-01-25T12:55:51.336Z,101689.73
2023-01-25T12:58:37.437Z,101685.58
2023-01-25T13:01:10.931Z,101678.35
2023-01-25T13:03:56.435Z,101677.52
2023-01-25T13:06:47.318Z,101674.90
2023-01-25T13:10:03.208Z,101678.84
2023-01-25T13:12:51.439Z,101675.39
2023-01-25T13:15:39.724Z,101677.44
2023-01-25T13:18:28.446Z,101673.06
2023-01-25T13:20:56.780Z,101665.65
2023-01-25T13:23:34.835Z,101661.80
2023-01-25T13:26:20.516Z,101666.55
2023-01-25T13:28:48.465Z,101659.98
2023-01-25T13:31:51.608Z,101656.77
2023-01-25T13:34:43.725Z,101656.83
2023-01-25T13:37:19.071Z,101654.05
2023-01-25T13:40:05.921Z,101648.52
2023-01-25T13:42:34.200Z,101647.19
2023-01-25T13:45:13.872Z,101649.27
2023-01-25T13:47:41.938Z,101649.83
2023-01-25T13:50:18.050Z,101644.85
2023-01-25T18:01:12.602Z,101557.30
2023-01-25T18:03:40.897Z,101554.88
2023-01-25T18:06:11.231Z,101556.33
2023-01-25T18:08:41.851Z,101558.83
2023-01-25T18:11:09.774Z,101560.39
2023-01-25T18:13:49.658Z,101560.75
2023-01-25T18:16:17.379Z,101560.56
2023-01-25T18:18:46.332Z,101561.20
2023-01-25T18:21:23.652Z,101559.30
2023-01-25T18:23:51.901Z,101561.23
2023-01-25T18:26:25.696Z,101563.02
2023-01-25T18:29:45.813Z,101563.09
2023-01-25T18:32:13.461Z,101567.90
2023-01-25T18:34:40.011Z,101567.26
2023-01-25T18:37:17.079Z,101567.17
2023-01-25T18:39:45.340Z,101566.14
2023-01-25T18:42:11.921Z,101560.85
2023-01-25T18:44:38.919Z,101558.73
2023-01-25T18:47:05.980Z,101561.55
2023-01-25T18:49:32.553Z,101560.08
2023-01-25T18:52:10.836Z,101555.42
2023-01-25T18:54:38.442Z,101553.95
2023-01-25T18:57:06.243Z,101556.65
2023-01-25T18:59:33.407Z,101554.48
2023-01-25T19:02:00.028Z,101553.41
2023-01-25T19:04:27.318Z,101552.11
2023-01-25T19:06:56.930Z,101551.30
2023-01-25T19:09:24.517Z,101553.33
2023-01-25T19:11:51.286Z,101552.63
2023-01-25T19:14:18.477Z,101554.17
2023-01-25T19:16:45.299Z,101553.19
2023-01-25T19:19:11.846Z,101551.28
2023-01-25T19:21:38.805Z,101547.16
2023-01-25T19:24:09.063Z,101550.21
2023-01-25T19:26:36.271Z,101550.89
2023-01-25T19:29:02.898Z,101550.27
2023-01-25T19:31:31.828Z,101548.73
2023-01-25T19:34:00.523Z,101550.02
2023-01-25T19:36:28.539Z,101545.32
2023-01-25T19:38:56.917Z,101540.67
2023-01-25T19:41:26.160Z,101539.80
2023-01-25T19:43:54.195Z,101534.23
2023-01-25T19:46:23.919Z,101532.70
2023-01-25T19:48:52.773Z,101538.02
2023-01-25T19:51:41.680Z,101532.17
2023-01-25T19:54:16.217Z,101528.16
2023-01-25T19:56:44.562Z,101526.42
2023-01-25T19:59:16.631Z,101525.55
2023-01-25T20:01:44.567Z,101527.34
2023-01-25T20:04:12.931Z,101525.06
2023-01-25T20:06:39.824Z,101522.95
2023-01-25T20:09:06.544Z,101524.39
2023-01-25T20:11:34.005Z,101522.74
2023-01-25T20:14:02.989Z,101518.48
2023-01-25T20:16:31.424Z,101527.16
2023-01-25T20:18:58.439Z,101527.10
2023-01-25T20:21:25.514Z,101524.39
2023-01-25T20:23:55.320Z,101528.33
2023-01-25T20:26:23.976Z,101528.83
2023-01-25T20:28:51.866Z,101530.91
2023-01-25T20:31:33.328Z,101529.16
2023-01-25T20:34:01.431Z,101531.04
2023-01-25T20:36:29.656Z,101531.58
2023-01-25T20:38:56.371Z,101531.73
2023-01-25T20:41:23.451Z,101529.77
2023-01-25T20:43:51.833Z,101527.32
2023-01-25T20:46:19.407Z,101531.73
2023-01-25T20:48:46.318Z,101527.91
2023-01-25T20:51:14.026Z,101531.87
2023-01-25T20:53:41.573Z,101532.69
2023-01-25T20:56:08.928Z,101529.77
2023-01-25T20:58:35.986Z,101528.73
2023-01-25T21:01:03.983Z,101520.16
2023-01-25T21:03:30.659Z,101525.59
2023-01-25T21:05:58.123Z,101520.95
2023-01-25T21:08:24.879Z,101516.17
2023-01-25T21:10:53.481Z,101515.58
2023-01-25T21:13:20.416Z,101514.33
2023-01-25T21:16:09.522Z,101513.94
2023-01-25T21:18:43.843Z,101511.77
2023-01-25T21:21:17.967Z,101509.30
2023-01-25T21:23:48.811Z,101507.80
2023-01-25T21:26:20.219Z,101507.46
2023-01-25T21:28:47.429Z,101505.52
2023-01-25T21:31:20.288Z,101507.19
2023-01-25T21:33:47.213Z,101503.75
2023-01-25T21:36:14.743Z,101502.58
2023-01-25T21:38:45.476Z,101498.33
2023-01-25T21:41:14.646Z,101487.28
2023-01-25T21:44:01.185Z,101487.14
2023-01-25T21:46:28.099Z,101480.94
2023-01-25T21:49:21.312Z,101475.41
2023-01-25T21:51:49.956Z,101474.35
2023-01-25T23:54:15.788Z,101421.43
2023-01-25T23:56:43.783Z,101412.33
2023-01-25T23:59:11.776Z,101416.52
